Castellon, Spain

10:58 PM CEST on September 01, 2014 (GMT +0200)
ICOMUNID116 | Change Station
CLOSE
Current Station
Personal Weather Station
Location: Vila-real, COMUNIDAD VALENCIANA
Elevation: 154 ft
Nearby Weather Stations

Elev 154 ft 39.94 °N, 0.10 °W | Updated 1 minute ago

Scattered Clouds
Scattered Clouds
77.5 °F
Feels Like 79 °F
N
4.0
Wind Variable Wind from WSW
Gusts 4.0 mph

Today
High -- | Low -- °F
--% Chance of Precip.
Yesterday
High -- | Low -- °F
Precip. -- in
7:27 AM 8:32 PM
Waxing Crescent, 44% visible
Pressure 29.95 in
Visibility 6.2 miles
Clouds Scattered Clouds 1500 ft
Heat Index 79 °F
Dew Point 69 °F
Humidity 75%
Rainfall 0.00 in
Snow Depth Not available.
UV 0 out of 12
Pollen Not available.
Air Quality Not available.
Flu Activity Not available.
METAR LEVC 012030Z 05004KT 030V090 9999 SCT015 26/23 Q1014 NOSIG

More Conditions Fewer Conditions

Pressure 29.95 in
Visibility 6.2 miles
Clouds Scattered Clouds 1500 ft
Heat Index 79 °F
Dew Point 69 °F
Humidity 75%
Rainfall 0.00 in
Snow Depth Not available.
UV 0 out of 12
Pollen Not available.
Air Quality Not available.
Flu Activity Not available.
METAR LEVC 012030Z 05004KT 030V090 9999 SCT015 26/23 Q1014 NOSIG

More Conditions Fewer Conditions

10-Day Weather Forecast

Almanac

Astronomy

Sep. 01, 2014 Rise Set
Actual Time 7:27 AM CEST 8:32 PM CEST
Civil Twilight 7:00 AM CEST 8:59 PM CEST
Nautical Twilight 6:26 AM CEST 9:32 PM CEST
Astronomical Twilight 5:52 AM CEST 10:07 PM CEST
Moon 1:58 PM CEST No Moon Set
Length Of Visible Light 13h 59m
Length of Day
13h 04m
Tomorrow will be 2m 30s shorter.
Waxing Crescent, 44% of the Moon is Illuminated
Today
Waxing Crescent
Sep 2
First Quarter
Sep 8
Full
Sep 15
Last Quarter
Sep 24
New

Today's Extremes

Country Highs Country Lows

Community

WunderPhotos

Upload Photos

1,749,404 photos uploaded!

WunderBlogs® & News

Nearby

Snow Depth

Not available.

Earthquake Activity

City Distance Mag. Time & Date
No recent earthquake activity has been reported nearby.
Minimum magnitude displayed is 2.5.

Coastal Water Temperatures

Place Temperature
No Stations Reporting

Nearby Weather Stations